Terminal Aerodrome Forecast
Issued by NWS

Current Version | Previous Version | Text Only | Print | Product List | Glossary On
Versions: 1 2 3 4 5 6 7 8 9 10 11 12 13 14 15 16 17 18 19 20 21 22 23 24 25 26 27 28 29 30 31 32 33 34 35 36 37 38 39 40 41 42 43 44 45 46 47 48
000
FTUS44 KBMX 270903 AAA
TAFASN
TAF AMD
KASN 270903Z 2709/2806 18012G18KT 4SM TSRA BKN020CB OVC100
     FM271200 21012KT P6SM SCT008 OVC012
     FM271700 25008KT P6SM BKN018
     FM272000 25011KT P6SM BKN070
     FM280100 00000KT P6SM SKC=

USA.gov is the U.S. government's official web portal to all federal, state and local government web resources and services.